createdAt,value
2023-05-23T00:04:18.924Z,5.93
2023-05-23T00:09:04.936Z,5.43
2023-05-23T00:13:55.013Z,6.17
2023-05-23T00:18:43.193Z,4.23
2023-05-23T00:23:30.006Z,7.20
2023-05-23T00:28:16.336Z,8.17
2023-05-23T00:33:00.675Z,7.17
2023-05-23T00:37:54.028Z,8.93
2023-05-23T00:42:43.725Z,6.77
2023-05-23T00:47:31.899Z,6.37
2023-05-23T00:52:22.260Z,4.67
2023-05-23T00:57:08.689Z,4.73
2023-05-23T01:01:58.215Z,5.97
2023-05-23T01:06:46.676Z,8.80
2023-05-23T01:11:36.365Z,8.20
2023-05-23T01:16:35.420Z,11.17
2023-05-23T01:21:27.002Z,5.87
2023-05-23T01:26:32.785Z,6.63
2023-05-23T01:31:18.668Z,9.47
2023-05-23T01:36:05.578Z,8.97
2023-05-23T01:40:50.857Z,7.83
2023-05-23T01:45:42.410Z,6.00
2023-05-23T01:50:30.292Z,5.07
2023-05-23T01:55:22.725Z,5.00
2023-05-23T02:00:08.331Z,5.20
2023-05-23T02:05:08.318Z,5.03
2023-05-23T02:09:57.805Z,3.57
2023-05-23T02:14:52.289Z,5.50
2023-05-23T02:19:36.095Z,3.90
2023-05-23T02:24:22.482Z,5.13
2023-05-23T02:29:09.644Z,5.07
2023-05-23T02:33:57.227Z,8.50
2023-05-23T02:38:42.813Z,7.13
2023-05-23T02:43:30.540Z,6.30
2023-05-23T02:48:20.645Z,6.73
2023-05-23T02:53:13.001Z,6.17
2023-05-23T02:57:58.775Z,5.43
2023-05-23T03:02:47.992Z,5.23
2023-05-23T03:07:33.997Z,5.37
2023-05-23T03:12:19.805Z,5.87
2023-05-23T03:17:07.144Z,5.87
2023-05-23T03:22:00.634Z,5.17
2023-05-23T03:26:45.929Z,6.13
2023-05-23T03:31:34.861Z,5.90
2023-05-23T03:36:21.972Z,7.63
2023-05-23T03:41:15.044Z,5.13
2023-05-23T03:46:00.841Z,5.43
2023-05-23T03:50:44.824Z,4.23
2023-05-23T03:55:33.377Z,4.67
2023-05-23T04:00:24.429Z,5.03
2023-05-23T04:05:10.343Z,4.50
2023-05-23T04:09:57.786Z,4.43
2023-05-23T04:14:47.896Z,5.13
2023-05-23T04:19:32.229Z,5.17
2023-05-23T04:24:24.714Z,5.27
2023-05-23T04:29:13.050Z,5.43
2023-05-23T04:33:59.785Z,5.90
2023-05-23T04:38:45.480Z,5.37
2023-05-23T04:43:34.745Z,5.90
2023-05-23T04:48:39.796Z,5.97
2023-05-23T04:53:25.547Z,8.37
2023-05-23T04:58:15.239Z,8.00
2023-05-23T05:03:19.203Z,8.53
2023-05-23T05:08:06.102Z,10.13
2023-05-23T05:12:54.841Z,9.80
2023-05-23T05:17:41.777Z,10.07
2023-05-23T05:22:31.096Z,9.90
2023-05-23T05:27:20.831Z,10.83
2023-05-23T05:32:09.069Z,13.20
2023-05-23T05:36:57.496Z,13.10
2023-05-23T05:41:44.032Z,14.20
2023-05-23T05:46:29.847Z,16.80
2023-05-23T05:51:15.375Z,18.33
2023-05-23T05:56:03.873Z,17.70
2023-05-23T06:00:53.663Z,19.13
2023-05-23T06:05:41.487Z,18.40
2023-05-23T06:10:34.349Z,20.57
2023-05-23T06:15:18.903Z,18.57
2023-05-23T06:20:08.790Z,17.93
2023-05-23T06:24:55.495Z,18.30
2023-05-23T06:29:43.137Z,17.20
2023-05-23T06:34:26.676Z,17.00
2023-05-23T06:39:17.343Z,16.70
2023-05-23T06:44:03.576Z,16.40
2023-05-23T06:49:06.549Z,16.73
2023-05-23T06:53:57.828Z,15.90
2023-05-23T06:58:47.292Z,15.20
2023-05-23T07:03:34.674Z,16.37
2023-05-23T07:08:22.898Z,13.70
2023-05-23T07:13:24.229Z,12.60
2023-05-23T07:18:14.413Z,12.07
2023-05-23T07:23:04.345Z,12.50
2023-05-23T07:27:50.043Z,12.10
2023-05-23T07:32:39.748Z,11.93
2023-05-23T07:37:27.454Z,12.90
2023-05-23T07:42:13.959Z,12.63
2023-05-23T07:47:05.032Z,11.20
2023-05-23T07:51:49.199Z,10.37
2023-05-23T07:56:40.075Z,10.87
2023-05-23T08:01:27.157Z,10.77
2023-05-23T08:06:29.984Z,9.43
2023-05-23T08:11:19.021Z,10.47
2023-05-23T08:16:08.834Z,9.67
2023-05-23T08:20:54.869Z,12.67
2023-05-23T08:25:43.413Z,11.77
2023-05-23T08:30:30.421Z,11.97
2023-05-23T08:35:17.282Z,12.20
2023-05-23T08:40:23.813Z,11.97
2023-05-23T08:45:25.828Z,12.73
2023-05-23T08:50:16.226Z,13.70
2023-05-23T08:55:02.828Z,14.70
2023-05-23T08:59:51.428Z,16.17
2023-05-23T09:04:50.522Z,16.37
2023-05-23T09:09:43.450Z,19.67
2023-05-23T09:14:32.510Z,20.83
2023-05-23T09:19:29.766Z,21.13
2023-05-23T09:24:38.635Z,23.10
2023-05-23T09:29:29.557Z,25.67
2023-05-23T09:34:15.054Z,27.27
2023-05-23T09:39:05.288Z,29.13
2023-05-23T09:43:52.979Z,32.10
2023-05-23T09:48:38.901Z,26.57
2023-05-23T09:53:24.581Z,21.77
2023-05-23T09:58:18.475Z,19.10
2023-05-23T10:03:19.223Z,16.73
2023-05-23T10:08:12.078Z,14.53
2023-05-23T10:12:58.034Z,13.10
2023-05-23T10:18:02.133Z,10.27
2023-05-23T10:22:50.062Z,10.93
2023-05-23T10:27:35.093Z,9.97
2023-05-23T10:32:22.767Z,10.23
2023-05-23T10:37:23.594Z,12.00
2023-05-23T10:42:17.331Z,10.43
2023-05-23T10:47:05.173Z,10.40
2023-05-23T10:51:52.593Z,9.23
2023-05-23T10:56:38.267Z,10.03
2023-05-23T11:01:28.743Z,11.13
2023-05-23T11:06:32.042Z,10.00
2023-05-23T11:11:22.924Z,10.30
2023-05-23T11:16:29.008Z,10.93
2023-05-23T11:21:16.813Z,9.37
2023-05-23T11:26:00.309Z,9.70
2023-05-23T11:30:46.355Z,9.70
2023-05-23T11:35:34.800Z,10.20
2023-05-23T11:40:38.766Z,10.63
2023-05-23T11:45:32.084Z,10.53
2023-05-23T11:50:17.654Z,9.13
2023-05-23T11:55:04.470Z,10.13
2023-05-23T12:00:28.612Z,10.43
2023-05-23T12:05:15.114Z,10.93
2023-05-23T12:10:01.733Z,10.97
2023-05-23T12:14:47.456Z,10.50
2023-05-23T12:19:40.242Z,9.63
2023-05-23T12:24:25.462Z,9.73
2023-05-23T12:29:11.114Z,9.77
2023-05-23T12:34:00.670Z,9.77
2023-05-23T12:38:47.183Z,10.37
2023-05-23T12:43:40.350Z,10.07
2023-05-23T12:48:23.972Z,10.70
2023-05-23T12:53:11.253Z,10.37
2023-05-23T12:58:00.569Z,12.33
2023-05-23T13:02:47.794Z,10.30
2023-05-23T13:07:37.682Z,10.47
2023-05-23T13:12:23.398Z,9.37
2023-05-23T13:17:11.819Z,11.00
2023-05-23T13:22:00.781Z,9.40
2023-05-23T13:26:50.250Z,9.70
2023-05-23T13:31:34.487Z,8.97
2023-05-23T13:36:23.597Z,9.67
2023-05-23T13:41:28.108Z,10.17
2023-05-23T13:46:18.309Z,9.80
2023-05-23T13:51:03.801Z,7.90
2023-05-23T13:55:50.912Z,7.53
2023-05-23T14:00:43.395Z,6.97
2023-05-23T14:05:27.049Z,7.70
2023-05-23T14:10:17.551Z,7.33
2023-05-23T14:15:05.804Z,6.20
2023-05-23T14:20:09.804Z,7.57
2023-05-23T14:25:11.254Z,5.13
2023-05-23T14:30:01.473Z,4.30
2023-05-23T14:35:01.374Z,4.10
2023-05-23T14:40:14.408Z,4.37
2023-05-23T14:45:14.196Z,4.70
2023-05-23T14:49:59.020Z,5.93
2023-05-23T14:55:04.779Z,6.07
2023-05-23T14:59:56.039Z,6.20
2023-05-23T15:04:40.197Z,6.73
2023-05-23T15:09:28.443Z,6.07
2023-05-23T15:14:15.715Z,6.60
2023-05-23T15:19:49.182Z,7.07
2023-05-23T15:24:42.074Z,7.30
2023-05-23T15:29:27.840Z,7.30
2023-05-23T15:34:15.315Z,7.70
2023-05-23T15:39:03.874Z,5.67
2023-05-23T15:44:10.585Z,5.33
2023-05-23T15:49:04.990Z,4.73
2023-05-23T15:54:01.549Z,4.27
2023-05-23T15:59:07.020Z,4.00
2023-05-23T16:03:52.805Z,3.53
2023-05-23T16:08:42.430Z,3.63
2023-05-23T16:13:30.235Z,4.17
2023-05-23T16:18:52.394Z,4.83
2023-05-23T16:23:37.334Z,5.13
2023-05-23T16:28:24.260Z,5.10
2023-05-23T16:33:11.902Z,5.43
2023-05-23T16:37:59.653Z,7.10
2023-05-23T16:42:49.120Z,5.67
2023-05-23T16:47:35.654Z,4.67
2023-05-23T16:52:29.144Z,4.63
2023-05-23T16:57:14.538Z,4.23
2023-05-23T17:02:00.059Z,4.30
2023-05-23T17:06:50.337Z,3.70
2023-05-23T17:11:39.489Z,3.63
2023-05-23T17:16:26.994Z,4.33
2023-05-23T17:21:11.167Z,4.77
2023-05-23T17:26:05.084Z,4.30
2023-05-23T17:30:52.794Z,4.03
2023-05-23T17:35:37.781Z,4.53
2023-05-23T17:40:23.448Z,4.43
2023-05-23T17:45:15.119Z,4.17
2023-05-23T17:50:01.821Z,3.63
2023-05-23T17:54:48.495Z,3.30
2023-05-23T17:59:35.357Z,3.77
2023-05-23T18:04:26.825Z,3.27
2023-05-23T18:09:13.926Z,3.90
2023-05-23T18:14:02.262Z,3.57
2023-05-23T18:18:49.149Z,6.13
2023-05-23T18:23:36.248Z,3.73
2023-05-23T18:28:28.602Z,4.67
2023-05-23T18:33:31.625Z,4.50
2023-05-23T18:38:15.612Z,6.23
2023-05-23T18:43:03.614Z,8.17
2023-05-23T18:48:08.061Z,10.40
2023-05-23T18:52:55.477Z,11.70
2023-05-23T18:58:01.785Z,13.03
2023-05-23T19:02:48.246Z,13.80
2023-05-23T19:07:32.030Z,17.87
2023-05-23T19:12:41.192Z,19.27
2023-05-23T19:17:28.575Z,20.20
2023-05-23T19:22:19.400Z,17.37
2023-05-23T19:27:07.671Z,15.70
2023-05-23T19:31:53.218Z,17.07
2023-05-23T19:36:39.971Z,23.13
2023-05-23T19:41:29.734Z,16.03
2023-05-23T19:46:15.722Z,16.10
2023-05-23T19:51:08.181Z,12.20
2023-05-23T19:55:51.732Z,20.60
2023-05-23T20:00:38.345Z,17.77
2023-05-23T20:05:40.687Z,16.60
2023-05-23T20:10:33.223Z,16.07
2023-05-23T20:15:31.359Z,19.80
2023-05-23T20:20:22.937Z,15.30
2023-05-23T20:25:17.733Z,15.93
2023-05-23T20:30:03.096Z,17.50
2023-05-23T20:34:48.459Z,12.57
2023-05-23T20:39:38.819Z,16.33
2023-05-23T20:44:25.047Z,19.20
2023-05-23T20:49:45.144Z,16.53
2023-05-23T20:54:34.544Z,14.07
2023-05-23T20:59:20.265Z,15.87
2023-05-23T21:04:07.052Z,15.57
2023-05-23T21:08:59.219Z,13.47
2023-05-23T21:13:43.255Z,13.80
2023-05-23T21:18:35.944Z,19.03
2023-05-23T21:23:20.148Z,16.53
2023-05-23T21:28:14.323Z,13.37
2023-05-23T21:33:07.682Z,12.33
2023-05-23T21:38:00.346Z,17.47
2023-05-23T21:42:47.625Z,16.63
2023-05-23T21:47:36.226Z,15.10
2023-05-23T21:52:24.844Z,16.40
2023-05-23T21:57:11.360Z,14.10
2023-05-23T22:02:04.062Z,14.30
2023-05-23T22:06:49.628Z,14.53
2023-05-23T22:11:36.695Z,11.87
2023-05-23T22:16:23.699Z,14.03
2023-05-23T22:21:13.490Z,13.67
2023-05-23T22:26:16.638Z,11.80
2023-05-23T22:31:03.390Z,18.80
2023-05-23T22:35:52.332Z,14.27
2023-05-23T22:40:42.098Z,15.43
2023-05-23T22:45:57.329Z,15.63
2023-05-23T22:50:54.260Z,14.60
2023-05-23T22:55:38.595Z,13.40
2023-05-23T23:00:25.363Z,13.40
2023-05-23T23:05:12.337Z,16.60
2023-05-23T23:10:15.810Z,10.40
2023-05-23T23:15:09.059Z,11.40
2023-05-23T23:19:54.412Z,14.93
2023-05-23T23:24:40.595Z,14.53
2023-05-23T23:29:28.515Z,14.93
2023-05-23T23:34:15.021Z,8.70
2023-05-23T23:39:08.198Z,10.10
2023-05-23T23:43:51.589Z,12.67
2023-05-23T23:48:39.116Z,9.70
2023-05-23T23:53:30.224Z,11.67
2023-05-23T23:58:13.780Z,12.70
